createdAt,value
2022-07-26T00:01:31.816Z,31.38
2022-07-26T00:06:51.514Z,31.34
2022-07-26T00:11:51.771Z,31.04
2022-07-26T00:16:54.183Z,30.95
2022-07-26T00:22:12.026Z,30.78
2022-07-26T00:27:17.885Z,30.62
2022-07-26T00:32:27.556Z,30.47
2022-07-26T00:37:33.553Z,30.53
2022-07-26T00:42:37.624Z,30.41
2022-07-26T00:47:42.528Z,30.33
2022-07-26T00:52:52.570Z,30.38
2022-07-26T00:57:49.762Z,30.48
2022-07-26T01:02:48.795Z,30.39
2022-07-26T01:07:47.055Z,30.51
2022-07-26T01:12:47.851Z,30.16
2022-07-26T01:17:49.056Z,30.05
2022-07-26T01:22:51.466Z,30.04
2022-07-26T01:27:50.753Z,29.98
2022-07-26T01:32:52.090Z,30.41
2022-07-26T01:37:54.793Z,30.30
2022-07-26T01:42:54.262Z,29.81
2022-07-26T01:47:53.883Z,29.19
2022-07-26T01:53:06.116Z,29.50
2022-07-26T01:58:15.677Z,29.33
2022-07-26T02:03:17.023Z,29.65
2022-07-26T02:08:18.913Z,29.91
2022-07-26T02:13:20.076Z,30.20
2022-07-26T02:18:44.973Z,30.41
2022-07-26T02:23:55.322Z,30.39
2022-07-26T02:28:54.902Z,29.21
2022-07-26T02:33:53.006Z,29.17
2022-07-26T02:44:04.566Z,29.44
2022-07-26T02:49:09.296Z,29.36
2022-07-26T02:54:13.403Z,29.15
2022-07-26T02:59:13.552Z,28.58
2022-07-26T03:04:17.223Z,28.25
2022-07-26T03:09:17.987Z,28.19
2022-07-26T03:14:14.952Z,28.34
2022-07-26T03:19:12.804Z,28.92
2022-07-26T03:24:14.948Z,29.24
2022-07-26T03:29:16.691Z,29.06
2022-07-26T03:34:50.183Z,29.38
2022-07-26T03:39:55.481Z,29.49
2022-07-26T03:45:09.742Z,29.71
2022-07-26T03:50:08.778Z,29.72
2022-07-26T03:55:22.848Z,29.74
2022-07-26T04:00:26.606Z,29.79
2022-07-26T04:05:40.902Z,29.67
2022-07-26T04:10:50.698Z,29.77
2022-07-26T04:16:02.885Z,29.87
2022-07-26T04:21:23.398Z,30.11
2022-07-26T04:26:33.161Z,30.01
2022-07-26T04:31:42.105Z,30.23
2022-07-26T04:36:54.688Z,30.48
2022-07-26T04:42:00.809Z,30.49
2022-07-26T04:47:04.730Z,30.51
2022-07-26T04:52:03.979Z,30.40
2022-07-26T04:57:08.207Z,30.45
2022-07-26T05:02:14.756Z,30.63
2022-07-26T05:07:29.722Z,30.27
2022-07-26T05:12:35.161Z,30.28
2022-07-26T05:17:45.755Z,30.32
2022-07-26T05:23:02.982Z,30.37
2022-07-26T05:28:12.863Z,30.37
2022-07-26T05:33:16.757Z,30.40
2022-07-26T05:38:38.977Z,30.60
2022-07-26T05:43:42.182Z,30.63
2022-07-26T05:49:23.239Z,30.75
2022-07-26T05:54:37.075Z,30.87
2022-07-26T06:19:04.408Z,29.00
2022-07-26T06:24:28.604Z,29.22
2022-07-26T06:30:02.022Z,29.10
2022-07-26T06:35:10.129Z,29.60
2022-07-26T06:40:35.566Z,30.12
2022-07-26T06:45:51.653Z,30.46
2022-07-26T06:51:44.925Z,30.59
2022-07-26T06:56:54.885Z,30.97
2022-07-26T07:02:04.001Z,31.15
2022-07-26T07:07:20.863Z,31.22
2022-07-26T07:18:11.441Z,31.63
2022-07-26T07:23:14.262Z,31.77
2022-07-26T07:28:14.785Z,31.82
2022-07-26T07:33:22.779Z,31.84
2022-07-26T07:38:43.016Z,31.65
2022-07-26T07:43:54.053Z,31.87
2022-07-26T07:48:59.086Z,32.03
2022-07-26T07:54:14.406Z,32.25
2022-07-26T07:59:15.826Z,32.17
2022-07-26T08:04:25.775Z,32.29
2022-07-26T08:09:28.977Z,32.50
2022-07-26T08:20:17.761Z,32.62
2022-07-26T08:25:22.024Z,32.77
2022-07-26T08:30:24.615Z,32.91
2022-07-26T08:35:35.760Z,33.15
2022-07-26T08:53:23.661Z,33.60
2022-07-26T08:58:28.852Z,33.74
2022-07-26T09:10:06.079Z,33.91
2022-07-26T09:16:05.360Z,34.09
2022-07-26T09:27:38.576Z,34.19
2022-07-26T09:32:44.139Z,34.29
2022-07-26T09:37:45.399Z,34.40
2022-07-26T09:42:58.648Z,34.50
2022-07-26T09:48:59.304Z,34.55
2022-07-26T09:54:05.745Z,34.57
2022-07-26T09:59:26.676Z,34.61
2022-07-26T10:11:17.906Z,34.76
2022-07-26T10:16:38.490Z,34.72
2022-07-26T10:21:37.529Z,34.86
2022-07-26T10:33:15.876Z,35.05
2022-07-26T10:38:35.906Z,35.03
2022-07-26T10:43:41.184Z,35.13
2022-07-26T10:48:54.956Z,35.08
2022-07-26T10:54:07.507Z,35.09
2022-07-26T10:59:12.239Z,35.07
2022-07-26T11:09:39.762Z,35.26
2022-07-26T11:14:41.726Z,35.19
2022-07-26T11:20:11.980Z,35.43
2022-07-26T11:31:50.537Z,35.57
2022-07-26T11:36:59.110Z,35.70
2022-07-26T11:42:50.166Z,35.88
2022-07-26T11:48:10.350Z,36.16
2022-07-26T11:53:30.722Z,36.20
2022-07-26T11:58:30.619Z,35.94
2022-07-26T12:04:05.125Z,36.08
2022-07-26T12:09:38.552Z,36.21
2022-07-26T12:20:45.582Z,36.37
2022-07-26T12:33:24.408Z,36.46
2022-07-26T12:38:55.668Z,36.62
2022-07-26T12:44:03.327Z,36.64
2022-07-26T12:49:06.580Z,36.74
2022-07-26T12:54:24.164Z,36.72
2022-07-26T12:59:33.080Z,36.38
2022-07-26T13:04:43.237Z,36.38
2022-07-26T13:09:43.112Z,36.09
2022-07-26T13:15:06.083Z,35.81
2022-07-26T13:20:41.979Z,36.29
2022-07-26T13:25:41.830Z,36.45
2022-07-26T13:30:52.819Z,36.55
2022-07-26T13:35:59.819Z,36.75
2022-07-26T13:41:08.662Z,36.79
2022-07-26T13:52:15.518Z,36.90
2022-07-26T13:57:55.903Z,37.02
2022-07-26T14:03:20.004Z,37.19
2022-07-26T14:08:25.664Z,37.07
2022-07-26T14:13:32.069Z,37.09
2022-07-26T14:18:36.818Z,37.18
2022-07-26T14:23:42.277Z,37.23
2022-07-26T14:28:49.485Z,37.19
2022-07-26T14:33:53.558Z,37.10
2022-07-26T14:38:52.863Z,37.41
2022-07-26T14:44:01.915Z,37.21
2022-07-26T14:49:05.569Z,37.33
2022-07-26T14:54:05.083Z,37.31
2022-07-26T14:59:04.367Z,37.23
2022-07-26T15:04:03.558Z,37.13
2022-07-26T15:09:03.515Z,37.14
2022-07-26T15:14:05.856Z,37.17
2022-07-26T15:19:04.042Z,37.14
2022-07-26T15:24:01.531Z,36.98
2022-07-26T15:29:00.845Z,36.86
2022-07-26T15:33:57.480Z,36.92
2022-07-26T15:38:55.305Z,36.61
2022-07-26T15:43:51.860Z,36.71
2022-07-26T15:48:48.555Z,36.69
2022-07-26T15:53:46.765Z,36.65
2022-07-26T15:58:44.927Z,36.66
2022-07-26T16:03:41.702Z,36.69
2022-07-26T16:08:58.508Z,36.76
2022-07-26T16:14:01.299Z,36.46
2022-07-26T16:18:58.723Z,36.53
2022-07-26T16:23:55.291Z,36.54
2022-07-26T16:28:52.542Z,36.59
2022-07-26T16:33:49.793Z,36.53
2022-07-26T16:38:46.445Z,36.62
2022-07-26T16:43:44.679Z,36.31
2022-07-26T16:48:41.484Z,36.33
2022-07-26T16:53:38.765Z,36.38
2022-07-26T16:58:35.404Z,36.40
2022-07-26T17:03:31.958Z,36.40
2022-07-26T17:08:28.695Z,36.34
2022-07-26T17:13:25.976Z,36.33
2022-07-26T17:18:22.570Z,36.30
2022-07-26T17:23:19.398Z,36.33
2022-07-26T17:28:17.117Z,36.33
2022-07-26T17:33:14.837Z,36.35
2022-07-26T17:38:11.511Z,36.33
2022-07-26T17:43:08.267Z,36.31
2022-07-26T17:48:06.506Z,36.24
2022-07-26T17:53:03.971Z,36.19
2022-07-26T17:58:00.982Z,36.08
2022-07-26T18:02:57.614Z,35.93
2022-07-26T18:07:54.165Z,35.76
2022-07-26T18:12:51.423Z,35.58
2022-07-26T18:17:48.015Z,35.41
2022-07-26T18:22:45.763Z,35.38
2022-07-26T18:27:46.709Z,35.24
2022-07-26T18:32:43.943Z,35.04
2022-07-26T18:37:40.645Z,35.08
2022-07-26T18:42:40.368Z,34.89
2022-07-26T18:47:37.145Z,34.75
2022-07-26T18:52:34.603Z,34.64
2022-07-26T18:57:31.263Z,34.74
2022-07-26T19:02:28.541Z,34.62
2022-07-26T19:07:25.231Z,34.54
2022-07-26T19:12:22.541Z,34.41
2022-07-26T19:17:19.213Z,34.33
2022-07-26T19:22:15.854Z,34.33
2022-07-26T19:27:14.350Z,34.34
2022-07-26T19:32:11.637Z,34.02
2022-07-26T19:37:08.331Z,34.08
2022-07-26T19:42:05.054Z,34.14
2022-07-26T19:47:01.623Z,34.18
2022-07-26T19:51:59.226Z,34.56
2022-07-26T19:56:55.858Z,34.51
2022-07-26T20:01:54.543Z,34.83
2022-07-26T20:06:54.331Z,34.95
2022-07-26T20:11:51.548Z,34.84
2022-07-26T20:16:51.650Z,34.74
2022-07-26T20:21:54.294Z,34.50
2022-07-26T20:26:51.677Z,34.49
2022-07-26T20:31:48.304Z,34.41
2022-07-26T20:36:45.517Z,34.32
2022-07-26T20:41:42.110Z,34.32
2022-07-26T20:46:40.261Z,34.42
2022-07-26T20:51:37.043Z,34.55
2022-07-26T20:56:33.668Z,34.35
2022-07-26T21:01:30.392Z,34.24
2022-07-26T21:06:29.188Z,34.39
2022-07-26T21:11:26.181Z,34.45
2022-07-26T21:16:23.090Z,34.52
2022-07-26T21:21:20.021Z,34.44
2022-07-26T21:26:17.357Z,34.42
2022-07-26T21:31:13.951Z,34.20
2022-07-26T21:36:10.641Z,33.99
2022-07-26T21:41:07.170Z,33.93
2022-07-26T21:46:07.837Z,33.58
2022-07-26T21:51:08.526Z,33.56
2022-07-26T21:56:05.496Z,32.99
2022-07-26T22:01:03.317Z,33.26
2022-07-26T22:06:04.440Z,33.69
2022-07-26T22:11:01.041Z,33.62
2022-07-26T22:15:57.629Z,33.57
2022-07-26T22:20:54.588Z,33.13
2022-07-26T22:25:51.866Z,32.47
2022-07-26T22:30:48.556Z,32.02
2022-07-26T22:35:45.118Z,32.28
2022-07-26T22:40:42.349Z,32.09
2022-07-26T22:45:39.770Z,32.04
2022-07-26T22:50:36.928Z,31.92
2022-07-26T22:55:33.436Z,32.27
2022-07-26T23:00:30.035Z,32.46
2022-07-26T23:05:36.621Z,32.70
2022-07-26T23:10:42.483Z,32.79
2022-07-26T23:15:39.016Z,33.01
2022-07-26T23:20:36.384Z,33.20
2022-07-26T23:25:32.970Z,33.32
2022-07-26T23:30:30.250Z,33.19
2022-07-26T23:35:26.946Z,33.12
2022-07-26T23:40:24.738Z,32.93
2022-07-26T23:45:21.499Z,32.08
2022-07-26T23:50:18.765Z,31.19
2022-07-26T23:55:15.308Z,30.93
